createdAt,value
2023-01-08T00:01:33.723Z,99.90
2023-01-08T00:04:01.169Z,99.90
2023-01-08T00:06:31.257Z,99.90
2023-01-08T00:08:58.548Z,99.90
2023-01-08T00:11:26.053Z,99.90
2023-01-08T00:13:53.438Z,99.90
2023-01-08T00:16:21.107Z,99.90
2023-01-08T00:18:50.595Z,99.90
2023-01-08T00:21:17.947Z,99.90
2023-01-08T00:23:45.189Z,99.90
2023-01-08T00:26:13.897Z,99.90
2023-01-08T00:28:45.503Z,99.90
2023-01-08T00:31:13.552Z,99.90
2023-01-08T00:33:43.650Z,99.90
2023-01-08T00:36:14.285Z,99.90
2023-01-08T00:38:42.566Z,99.90
2023-01-08T00:41:09.947Z,99.90
2023-01-08T00:43:37.263Z,99.90
2023-01-08T00:46:04.932Z,99.90
2023-01-08T00:48:33.575Z,99.90
2023-01-08T00:51:03.338Z,99.90
2023-01-08T00:53:30.626Z,99.90
2023-01-08T00:56:06.896Z,99.90
2023-01-08T00:58:37.026Z,99.90
2023-01-08T01:01:10.325Z,99.90
2023-01-08T01:03:40.329Z,99.90
2023-01-08T01:06:10.664Z,99.90
2023-01-08T01:08:40.980Z,99.90
2023-01-08T01:11:17.445Z,99.90
2023-01-08T01:13:47.051Z,99.90
2023-01-08T01:16:14.462Z,99.90
2023-01-08T01:18:44.506Z,99.90
2023-01-08T01:21:32.539Z,99.90
2023-01-08T01:24:03.808Z,99.90
2023-01-08T01:26:32.233Z,99.90
2023-01-08T01:29:02.552Z,99.90
2023-01-08T01:31:32.006Z,99.90
2023-01-08T01:34:01.877Z,99.90
2023-01-08T01:36:33.787Z,99.90
2023-01-08T01:39:03.910Z,99.90
2023-01-08T01:41:39.160Z,99.90
2023-01-08T01:44:45.237Z,99.90
2023-01-08T01:47:36.555Z,99.90
2023-01-08T01:50:12.537Z,99.90
2023-01-08T01:53:01.158Z,99.90
2023-01-08T01:55:29.111Z,99.90
2023-01-08T01:58:16.341Z,99.90
2023-01-08T02:00:46.908Z,99.90
2023-01-08T02:03:15.933Z,99.90
2023-01-08T02:06:06.508Z,99.90
2023-01-08T02:08:38.956Z,99.90
2023-01-08T02:11:11.753Z,99.90
2023-01-08T02:13:43.219Z,99.90
2023-01-08T02:16:25.227Z,99.90
2023-01-08T02:18:59.917Z,99.90
2023-01-08T02:21:47.200Z,99.90
2023-01-08T02:24:27.229Z,99.90
2023-01-08T02:26:57.753Z,99.90
2023-01-08T02:29:30.327Z,99.90
2023-01-08T02:31:57.943Z,99.90
2023-01-08T02:34:28.482Z,99.90
2023-01-08T02:37:02.431Z,99.90
2023-01-08T02:39:32.001Z,99.90
2023-01-08T02:42:07.009Z,99.90
2023-01-08T02:44:57.674Z,99.90
2023-01-08T02:47:33.608Z,99.90
2023-01-08T02:50:07.743Z,99.90
2023-01-08T02:52:41.051Z,99.90
2023-01-08T02:55:10.729Z,99.90
2023-01-08T02:57:38.584Z,99.90
2023-01-08T03:00:09.344Z,99.90
2023-01-08T03:02:41.074Z,99.90
2023-01-08T03:05:16.867Z,99.90
2023-01-08T03:07:44.369Z,99.90
2023-01-08T03:10:12.199Z,99.90
2023-01-08T03:13:01.127Z,99.90
2023-01-08T03:15:36.583Z,99.90
2023-01-08T03:18:13.953Z,99.90
2023-01-08T03:20:41.563Z,99.90
2023-01-08T03:23:15.153Z,99.90
2023-01-08T03:25:47.325Z,99.90
2023-01-08T03:28:30.182Z,99.90
2023-01-08T03:30:59.104Z,99.90
2023-01-08T03:33:28.830Z,99.90
2023-01-08T03:36:00.560Z,99.90
2023-01-08T03:38:32.760Z,99.90
2023-01-08T03:41:06.453Z,99.90
2023-01-08T03:43:36.580Z,99.90
2023-01-08T03:46:08.857Z,99.90
2023-01-08T03:48:41.398Z,99.90
2023-01-08T03:51:12.183Z,99.90
2023-01-08T03:53:41.847Z,99.90
2023-01-08T03:56:09.114Z,99.90
2023-01-08T03:58:40.764Z,99.90
2023-01-08T04:01:10.664Z,99.90
2023-01-08T04:03:40.329Z,99.90
2023-01-08T04:06:07.623Z,99.90
2023-01-08T04:08:34.880Z,99.90
2023-01-08T04:11:04.329Z,99.90
2023-01-08T04:13:34.066Z,99.90
2023-01-08T04:16:03.500Z,99.90
2023-01-08T04:18:30.808Z,99.90
2023-01-08T04:21:00.635Z,99.90
2023-01-08T04:23:32.663Z,99.90
2023-01-08T04:25:59.888Z,99.90
2023-01-08T04:28:27.106Z,99.90
2023-01-08T04:30:54.409Z,99.90
2023-01-08T04:33:25.406Z,99.90
2023-01-08T04:35:54.876Z,99.90
2023-01-08T04:38:22.103Z,99.90
2023-01-08T04:40:49.347Z,99.90
2023-01-08T04:43:16.568Z,99.90
2023-01-08T04:45:45.980Z,99.90
2023-01-08T04:48:15.400Z,99.90
2023-01-08T04:50:42.675Z,99.90
2023-01-08T04:53:14.666Z,99.90
2023-01-08T04:55:41.882Z,99.90
2023-01-08T04:58:09.185Z,99.90
2023-01-08T05:00:40.061Z,99.90
2023-01-08T05:03:07.331Z,99.90
2023-01-08T05:05:37.564Z,99.90
2023-01-08T05:08:05.267Z,99.90
2023-01-08T05:10:32.493Z,99.90
2023-01-08T05:13:02.367Z,99.90
2023-01-08T05:15:32.467Z,99.90
2023-01-08T05:18:04.983Z,99.90
2023-01-08T05:20:33.333Z,99.90
2023-01-08T05:23:01.242Z,99.90
2023-01-08T05:25:28.506Z,99.90
2023-01-08T05:27:57.866Z,99.90
2023-01-08T05:30:25.118Z,99.90
2023-01-08T05:32:52.364Z,99.90
2023-01-08T05:35:24.640Z,99.90
2023-01-08T05:37:54.082Z,99.90
2023-01-08T05:40:21.402Z,99.90
2023-01-08T05:42:48.655Z,99.90
2023-01-08T05:45:18.292Z,99.90
2023-01-08T05:47:45.543Z,99.90
2023-01-08T05:50:15.032Z,99.90
2023-01-08T05:52:44.759Z,99.90
2023-01-08T05:55:12.104Z,99.90
2023-01-08T05:57:43.808Z,99.90
2023-01-08T06:00:12.474Z,99.90
2023-01-08T06:02:39.767Z,99.90
2023-01-08T06:05:07.301Z,99.90
2023-01-08T06:07:34.581Z,99.90
2023-01-08T06:10:01.803Z,99.90
2023-01-08T06:12:31.207Z,99.90
2023-01-08T06:14:58.440Z,99.90
2023-01-08T06:17:26.003Z,99.90
2023-01-08T06:19:53.223Z,99.90
2023-01-08T06:22:20.596Z,99.90
2023-01-08T06:24:50.040Z,99.90
2023-01-08T06:27:19.383Z,99.90
2023-01-08T06:29:49.223Z,99.90
2023-01-08T06:32:18.564Z,99.90
2023-01-08T06:34:45.857Z,99.90
2023-01-08T06:37:13.224Z,99.90
2023-01-08T06:39:42.714Z,99.90
2023-01-08T06:42:12.159Z,99.90
2023-01-08T06:44:39.425Z,99.90
2023-01-08T06:47:06.694Z,99.90
2023-01-08T06:49:33.980Z,99.90
2023-01-08T06:52:03.332Z,99.90
2023-01-08T06:54:35.593Z,99.90
2023-01-08T06:57:02.984Z,99.90
2023-01-08T06:59:32.434Z,99.90
2023-01-08T07:02:01.903Z,99.90
2023-01-08T07:04:29.212Z,99.90
2023-01-08T07:06:56.472Z,99.90
2023-01-08T07:09:25.960Z,99.90
2023-01-08T07:11:53.238Z,99.90
2023-01-08T07:14:22.995Z,99.90
2023-01-08T07:16:52.510Z,99.90
2023-01-08T07:19:22.396Z,99.90
2023-01-08T07:21:49.604Z,99.90
2023-01-08T07:24:19.215Z,99.90
2023-01-08T07:26:46.445Z,99.90
2023-01-08T07:29:13.692Z,99.90
2023-01-08T07:31:40.904Z,99.90
2023-01-08T07:34:10.702Z,99.90
2023-01-08T07:36:40.402Z,99.90
2023-01-08T07:39:07.658Z,99.90
2023-01-08T07:41:34.922Z,99.90
2023-01-08T07:44:02.211Z,99.90
2023-01-08T07:46:32.250Z,99.90
2023-01-08T07:48:59.598Z,99.90
2023-01-08T07:51:29.931Z,99.90
2023-01-08T07:53:59.714Z,99.90
2023-01-08T07:56:26.981Z,99.90
2023-01-08T07:58:58.907Z,99.90
2023-01-08T08:01:26.529Z,99.90
2023-01-08T08:03:55.995Z,99.90
2023-01-08T08:06:23.302Z,99.90
2023-01-08T08:08:50.535Z,99.90
2023-01-08T08:11:17.782Z,99.90
2023-01-08T08:13:45.211Z,99.90
2023-01-08T08:16:13.300Z,99.90
2023-01-08T08:18:40.602Z,99.90
2023-01-08T08:21:07.942Z,99.90
2023-01-08T08:23:37.700Z,99.90
2023-01-08T08:26:07.883Z,99.90
2023-01-08T08:28:35.210Z,99.90
2023-01-08T08:31:04.742Z,99.90
2023-01-08T08:33:32.067Z,99.90
2023-01-08T08:36:01.655Z,99.90
2023-01-08T08:38:28.910Z,99.90
2023-01-08T08:40:56.224Z,99.90
2023-01-08T08:43:23.694Z,99.90
2023-01-08T08:45:58.306Z,99.90
2023-01-08T08:48:25.617Z,99.90
2023-01-08T08:50:52.845Z,99.90
2023-01-08T08:53:20.108Z,99.90
2023-01-08T08:55:47.373Z,99.90
2023-01-08T08:58:14.640Z,99.90
2023-01-08T09:00:43.468Z,99.90
2023-01-08T09:03:17.308Z,99.90
2023-01-08T09:05:46.943Z,99.90
2023-01-08T09:08:16.345Z,99.90
2023-01-08T09:10:45.856Z,99.90
2023-01-08T09:13:13.376Z,99.90
2023-01-08T09:15:45.173Z,99.90
2023-01-08T09:18:13.441Z,99.90
2023-01-08T09:20:41.887Z,99.90
2023-01-08T09:23:10.028Z,99.90
2023-01-08T09:25:39.713Z,99.90
2023-01-08T09:28:12.174Z,99.90
2023-01-08T09:30:42.419Z,99.90
2023-01-08T09:33:12.372Z,99.90
2023-01-08T09:35:39.650Z,99.90
2023-01-08T09:38:06.991Z,99.90
2023-01-08T09:40:51.723Z,99.90
2023-01-08T09:43:22.666Z,99.90
2023-01-08T09:45:55.537Z,99.90
2023-01-08T09:48:30.937Z,99.90
2023-01-08T09:50:58.390Z,99.90
2023-01-08T09:53:26.079Z,99.90
2023-01-08T09:56:09.577Z,99.90
2023-01-08T09:59:03.581Z,99.90
2023-01-08T10:01:38.071Z,99.90
2023-01-08T10:04:19.649Z,99.90
2023-01-08T10:07:21.240Z,99.90
2023-01-08T10:09:55.844Z,99.90
2023-01-08T10:12:29.698Z,99.90
2023-01-08T10:15:03.469Z,99.90
2023-01-08T10:17:46.617Z,99.90
2023-01-08T10:20:22.979Z,99.90
2023-01-08T10:22:54.259Z,99.90
2023-01-08T10:25:27.751Z,99.90
2023-01-08T10:27:58.060Z,99.90
2023-01-08T10:30:35.893Z,99.90
2023-01-08T10:33:12.831Z,99.90
2023-01-08T10:35:42.179Z,99.90
2023-01-08T10:38:34.034Z,99.90
2023-01-08T10:41:09.929Z,99.90
2023-01-08T10:43:57.571Z,99.90
2023-01-08T10:46:27.323Z,99.90
2023-01-08T10:49:00.327Z,99.90
2023-01-08T10:51:33.087Z,99.90
2023-01-08T10:54:15.381Z,99.90
2023-01-08T10:56:44.850Z,99.90
2023-01-08T10:59:23.263Z,99.90
2023-01-08T11:01:57.877Z,99.90
2023-01-08T11:04:36.214Z,99.90
2023-01-08T11:07:07.100Z,99.90
2023-01-08T11:09:48.456Z,99.90
2023-01-08T11:12:47.040Z,99.90
2023-01-08T11:15:20.059Z,99.90
2023-01-08T11:17:49.795Z,99.90
2023-01-08T11:20:30.892Z,99.90
2023-01-08T11:23:20.796Z,99.90
2023-01-08T11:26:15.678Z,99.90
2023-01-08T11:28:56.672Z,99.90
2023-01-08T11:31:34.019Z,99.90
2023-01-08T11:34:15.690Z,99.90
2023-01-08T11:36:52.615Z,99.90
2023-01-08T11:39:20.042Z,99.90
2023-01-08T11:42:03.621Z,99.90
2023-01-08T11:45:05.315Z,99.90
2023-01-08T11:47:59.859Z,99.90
2023-01-08T11:50:33.463Z,99.90
2023-01-08T11:53:23.558Z,99.90
2023-01-08T11:55:55.684Z,99.90
2023-01-08T11:58:47.878Z,98.10
2023-01-08T12:01:15.154Z,99.90
2023-01-08T12:03:45.630Z,99.90
2023-01-08T12:06:37.974Z,99.20
2023-01-08T12:09:34.122Z,99.50
2023-01-08T12:12:38.656Z,99.10
2023-01-08T12:15:29.636Z,98.70
2023-01-08T12:18:10.441Z,97.80
2023-01-08T12:20:47.287Z,95.90
2023-01-08T12:23:35.559Z,95.60
2023-01-08T12:26:12.260Z,96.50
2023-01-08T12:29:07.317Z,95.60
2023-01-08T12:32:16.955Z,94.40
2023-01-08T12:34:53.668Z,96.40
2023-01-08T12:37:29.996Z,98.60
2023-01-08T12:40:14.170Z,99.90
2023-01-08T12:42:50.191Z,99.90
2023-01-08T12:45:29.279Z,99.90
2023-01-08T12:48:03.171Z,99.90
2023-01-08T12:50:47.108Z,99.90
2023-01-08T12:53:30.644Z,99.90
2023-01-08T12:56:20.128Z,99.90
2023-01-08T12:59:08.634Z,99.90
2023-01-08T13:01:54.812Z,99.90
2023-01-08T13:04:22.230Z,99.90
2023-01-08T13:07:03.087Z,99.90
2023-01-08T13:09:33.355Z,99.90
2023-01-08T13:12:09.097Z,99.90
2023-01-08T13:14:47.035Z,99.90
2023-01-08T13:17:22.280Z,99.90
2023-01-08T13:20:02.337Z,99.90
2023-01-08T13:22:32.300Z,99.90
2023-01-08T13:25:20.705Z,99.90
2023-01-08T13:27:53.214Z,99.90
2023-01-08T13:30:48.389Z,99.90
2023-01-08T13:33:39.656Z,99.90
2023-01-08T13:36:17.335Z,99.90
2023-01-08T13:38:45.333Z,99.90
2023-01-08T13:41:27.133Z,99.90
2023-01-08T13:44:01.960Z,99.90
2023-01-08T13:46:29.671Z,99.90
2023-01-08T13:49:23.625Z,99.90
2023-01-08T13:51:50.972Z,99.90
2023-01-08T13:54:27.478Z,99.90
2023-01-08T13:57:06.088Z,99.90
2023-01-08T13:59:45.651Z,99.90
2023-01-08T14:02:31.482Z,99.90
2023-01-08T14:05:00.664Z,99.90
2023-01-08T14:07:30.946Z,99.90
2023-01-08T14:10:11.908Z,99.90
2023-01-08T14:12:42.488Z,99.90
2023-01-08T14:15:33.683Z,99.90
2023-01-08T14:18:02.005Z,99.90
2023-01-08T14:20:31.896Z,99.90
2023-01-08T14:23:00.976Z,99.90
2023-01-08T14:25:31.814Z,99.90
2023-01-08T14:28:05.187Z,99.90
2023-01-08T14:30:33.395Z,99.90
2023-01-08T14:33:01.862Z,99.90
2023-01-08T14:35:35.594Z,99.90
2023-01-08T14:38:03.587Z,99.90
2023-01-08T14:40:43.640Z,99.90
2023-01-08T14:43:14.899Z,99.90
2023-01-08T14:46:02.857Z,99.90
2023-01-08T14:48:40.670Z,99.90
2023-01-08T14:51:11.525Z,99.90
2023-01-08T14:53:47.386Z,99.90
2023-01-08T14:56:18.098Z,99.90
2023-01-08T14:58:46.721Z,99.90
2023-01-08T15:01:33.486Z,99.90
2023-01-08T15:04:13.676Z,99.90
2023-01-08T15:06:43.923Z,99.90
2023-01-08T15:09:24.766Z,99.90
2023-01-08T15:11:57.766Z,99.90
2023-01-08T15:14:28.010Z,99.90
2023-01-08T15:16:59.833Z,99.90
2023-01-08T15:19:29.419Z,99.90
2023-01-08T15:21:59.352Z,99.90
2023-01-08T15:24:33.161Z,99.90
2023-01-08T15:27:09.874Z,99.90
2023-01-08T15:29:59.623Z,99.90
2023-01-08T15:32:37.284Z,99.90
2023-01-08T15:35:18.671Z,99.90
2023-01-08T15:37:48.964Z,99.90
2023-01-08T15:40:16.213Z,99.90
2023-01-08T15:43:02.860Z,99.90
2023-01-08T15:45:34.149Z,99.90
2023-01-08T15:48:02.270Z,99.90
2023-01-08T15:50:38.589Z,99.90
2023-01-08T15:53:13.126Z,99.90
2023-01-08T15:55:43.521Z,99.90
2023-01-08T15:58:13.132Z,99.90
2023-01-08T16:00:41.934Z,99.90
2023-01-08T16:03:11.564Z,99.90
2023-01-08T16:05:39.163Z,99.90
2023-01-08T16:08:08.882Z,99.90
2023-01-08T16:10:38.632Z,99.90
2023-01-08T16:13:10.254Z,99.90
2023-01-08T16:15:42.182Z,99.90
2023-01-08T16:18:12.235Z,99.90
2023-01-08T16:20:42.040Z,99.90
2023-01-08T16:23:11.802Z,99.90
2023-01-08T16:25:42.009Z,99.90
2023-01-08T16:28:12.123Z,99.90
2023-01-08T16:30:41.375Z,99.90
2023-01-08T16:33:08.751Z,99.90
2023-01-08T16:36:00.100Z,99.90
2023-01-08T16:38:27.945Z,99.90
2023-01-08T16:40:59.818Z,99.90
2023-01-08T16:43:31.440Z,99.90
2023-01-08T16:46:03.317Z,99.90
2023-01-08T16:48:31.215Z,99.90
2023-01-08T16:51:05.616Z,99.90
2023-01-08T16:53:35.644Z,99.90
2023-01-08T16:56:04.610Z,99.90
2023-01-08T16:58:35.140Z,99.90
2023-01-08T17:01:09.485Z,99.90
2023-01-08T17:03:37.570Z,99.90
2023-01-08T17:06:10.465Z,99.90
2023-01-08T17:08:40.439Z,99.90
2023-01-08T17:11:13.435Z,99.90
2023-01-08T17:13:44.122Z,99.90
2023-01-08T17:16:14.247Z,99.90
2023-01-08T17:18:42.217Z,99.90
2023-01-08T17:21:15.616Z,99.90
2023-01-08T17:23:45.391Z,99.90
2023-01-08T17:26:18.652Z,99.90
2023-01-08T17:28:47.281Z,99.90
2023-01-08T17:31:18.539Z,99.90
2023-01-08T17:33:54.616Z,99.90
2023-01-08T17:36:25.327Z,99.90
2023-01-08T17:38:56.497Z,99.90
2023-01-08T17:41:42.572Z,99.90
2023-01-08T17:44:13.395Z,99.90
2023-01-08T17:46:45.868Z,99.90
2023-01-08T17:49:15.414Z,99.90
2023-01-08T17:51:43.907Z,99.90
2023-01-08T17:54:12.393Z,99.90
2023-01-08T17:56:42.346Z,99.90
2023-01-08T17:59:13.888Z,99.90
2023-01-08T18:01:44.899Z,99.90
2023-01-08T18:04:13.115Z,99.90
2023-01-08T18:06:41.555Z,99.90
2023-01-08T18:09:10.055Z,99.90
2023-01-08T18:11:40.164Z,99.90
2023-01-08T18:14:09.266Z,99.90
2023-01-08T18:16:38.728Z,99.90
2023-01-08T18:19:09.004Z,99.90
2023-01-08T18:21:41.443Z,99.90
2023-01-08T18:24:11.775Z,99.90
2023-01-08T18:26:39.404Z,99.90
2023-01-08T18:29:09.544Z,99.90
2023-01-08T18:31:39.054Z,99.90
2023-01-08T18:34:09.769Z,99.90
2023-01-08T18:36:39.164Z,99.90
2023-01-08T18:39:06.501Z,99.90
2023-01-08T18:41:52.266Z,99.90
2023-01-08T18:44:22.034Z,99.90
2023-01-08T18:46:49.401Z,99.90
2023-01-08T18:49:17.000Z,99.90
2023-01-08T18:51:46.430Z,99.90
2023-01-08T18:54:16.425Z,99.90
2023-01-08T18:56:46.601Z,99.90
2023-01-08T18:59:17.200Z,99.90
2023-01-08T19:01:44.672Z,99.90
2023-01-08T19:04:18.267Z,99.90
2023-01-08T19:06:46.030Z,99.90
2023-01-08T19:09:15.215Z,99.90
2023-01-08T19:11:42.661Z,99.90
2023-01-08T19:14:15.072Z,99.90
2023-01-08T19:16:48.472Z,99.90
2023-01-08T19:19:16.226Z,99.90
2023-01-08T19:21:43.814Z,99.90
2023-01-08T19:24:13.377Z,99.90
2023-01-08T19:26:43.078Z,99.90
2023-01-08T19:29:10.436Z,99.90
2023-01-08T19:31:37.894Z,99.90
2023-01-08T19:34:05.679Z,99.90
2023-01-08T19:36:34.188Z,99.90
2023-01-08T19:39:01.750Z,99.90
2023-01-08T19:41:47.604Z,99.90
2023-01-08T19:44:14.871Z,99.90
2023-01-08T19:46:42.128Z,99.90
2023-01-08T19:49:09.580Z,99.90
2023-01-08T19:51:39.174Z,99.90
2023-01-08T19:54:06.495Z,99.90
2023-01-08T19:56:33.930Z,99.90
2023-01-08T19:59:01.196Z,99.90
2023-01-08T20:01:31.068Z,99.90
2023-01-08T20:04:00.904Z,99.90
2023-01-08T20:06:28.386Z,99.90
2023-01-08T20:09:00.555Z,99.90
2023-01-08T20:11:30.424Z,99.90
2023-01-08T20:14:00.851Z,99.90
2023-01-08T20:16:30.712Z,99.90
2023-01-08T20:19:05.065Z,99.90
2023-01-08T20:21:34.828Z,99.90
2023-01-08T20:24:09.139Z,99.90
2023-01-08T20:26:39.164Z,99.90
2023-01-08T20:29:07.253Z,99.90
2023-01-08T20:31:35.247Z,99.90
2023-01-08T20:34:09.216Z,99.90
2023-01-08T20:36:43.676Z,99.90
2023-01-08T20:39:15.264Z,99.90
2023-01-08T20:41:50.423Z,99.90
2023-01-08T20:44:28.969Z,99.90
2023-01-08T20:46:56.321Z,99.90
2023-01-08T20:49:25.289Z,99.90
2023-01-08T20:51:59.158Z,99.90
2023-01-08T20:54:28.832Z,99.90
2023-01-08T20:56:57.076Z,99.90
2023-01-08T20:59:28.031Z,99.90
2023-01-08T21:01:55.706Z,99.90
2023-01-08T21:04:23.862Z,99.90
2023-01-08T21:06:53.457Z,99.90
2023-01-08T21:09:20.768Z,99.90
2023-01-08T21:11:48.065Z,99.90
2023-01-08T21:14:17.930Z,99.90
2023-01-08T21:16:45.323Z,99.90
2023-01-08T21:19:15.365Z,99.90
2023-01-08T21:21:42.797Z,99.90
2023-01-08T21:24:14.987Z,99.90
2023-01-08T21:26:44.997Z,99.90
2023-01-08T21:29:16.936Z,99.90
2023-01-08T21:31:44.905Z,99.90
2023-01-08T21:34:14.354Z,99.90
2023-01-08T21:36:41.755Z,99.90
2023-01-08T21:39:10.523Z,99.90
2023-01-08T21:41:56.195Z,99.90
2023-01-08T21:44:43.661Z,99.90
2023-01-08T21:47:14.220Z,99.90
2023-01-08T21:49:41.529Z,99.90
2023-01-08T21:52:27.765Z,99.90
2023-01-08T21:54:58.345Z,99.90
2023-01-08T21:57:28.088Z,99.90
2023-01-08T21:59:58.173Z,99.90
2023-01-08T22:02:29.163Z,99.90
2023-01-08T22:04:58.911Z,99.90
2023-01-08T22:07:29.122Z,99.90
2023-01-08T22:09:56.921Z,99.90
2023-01-08T22:12:25.546Z,99.90
2023-01-08T22:14:56.629Z,99.90
2023-01-08T22:17:29.388Z,99.90
2023-01-08T22:19:57.941Z,99.90
2023-01-08T22:22:25.266Z,99.90
2023-01-08T22:24:56.037Z,99.90
2023-01-08T22:27:25.474Z,99.90
2023-01-08T22:29:53.557Z,99.90
2023-01-08T22:32:20.864Z,99.90
2023-01-08T22:34:48.642Z,99.90
2023-01-08T22:37:21.563Z,99.90
2023-01-08T22:39:49.337Z,99.90
2023-01-08T22:42:17.351Z,99.90
2023-01-08T22:44:47.526Z,99.90
2023-01-08T22:47:17.393Z,99.90
2023-01-08T22:49:44.645Z,99.90
2023-01-08T22:52:12.029Z,99.90
2023-01-08T22:54:39.677Z,99.90
2023-01-08T22:57:07.986Z,99.90
2023-01-08T22:59:35.313Z,99.90
2023-01-08T23:02:04.735Z,99.90
2023-01-08T23:04:32.067Z,99.90
2023-01-08T23:06:59.368Z,99.90
2023-01-08T23:09:26.727Z,99.90
2023-01-08T23:11:54.272Z,99.90
2023-01-08T23:14:21.681Z,99.90
2023-01-08T23:16:49.030Z,99.90
2023-01-08T23:19:18.784Z,99.90
2023-01-08T23:21:46.070Z,99.90
2023-01-08T23:24:15.877Z,99.90
2023-01-08T23:26:43.277Z,99.90
2023-01-08T23:29:10.881Z,99.90
2023-01-08T23:31:38.288Z,99.90
2023-01-08T23:34:06.365Z,99.90
2023-01-08T23:36:33.673Z,99.90
2023-01-08T23:39:01.584Z,99.90
2023-01-08T23:41:34.892Z,99.90
2023-01-08T23:44:08.370Z,99.90
2023-01-08T23:46:35.952Z,99.90
2023-01-08T23:49:03.970Z,99.90
2023-01-08T23:51:34.055Z,99.90
2023-01-08T23:54:01.332Z,99.90
2023-01-08T23:56:28.677Z,99.90
2023-01-08T23:58:59.927Z,99.90
